Time,TemperatureF,DewpointF,PressureIn,WindDirection,WindDirectionDegrees,WindSpeedMPH,WindSpeedGustMPH,Humidity,HourlyPrecipIn,Conditions,Clouds,dailyrainin,SoftwareType,DateUTC
2013-03-31 00:02:00,68.9,68.9,29.99,SSE,148,14.9,20.7,100,0.00,CLR,,0.00,WeatherDisplay:10.37,2013-03-31 05:02:00,
2013-03-31 00:07:00,68.9,68.9,29.99,SSE,165,11.8,18.4,100,0.00,CLR,,0.00,WeatherDisplay:10.37,2013-03-31 05:07:00,
2013-03-31 00:13:00,68.8,68.8,29.99,SSE,157,13.3,18.4,100,0.00,CLR,,0.00,WeatherDisplay:10.37,2013-03-31 05:13:00,
2013-03-31 00:18:00,69.0,69.0,29.99,SSE,155,12.7,20.7,100,0.00,CLR,,0.00,WeatherDisplay:10.37,2013-03-31 05:18:00,
2013-03-31 00:23:00,69.0,69.0,29.99,South,169,11.0,20.7,100,0.00,CLR,,0.00,WeatherDisplay:10.37,2013-03-31 05:23:00,
2013-03-31 00:28:00,68.9,68.9,29.99,South,181,11.6,19.6,100,0.00,CLR,,0.00,WeatherDisplay:10.37,2013-03-31 05:28:00,
2013-03-31 00:33:00,69.1,69.1,29.99,SE,144,12.2,18.4,100,0.00,CLR,,0.00,WeatherDisplay:10.37,2013-03-31 05:33:00,
2013-03-31 00:38:00,69.0,69.0,29.98,South,189,13.1,19.7,100,0.00,CLR,,0.00,WeatherDisplay:10.37,2013-03-31 05:38:00,
2013-03-31 00:43:00,69.0,69.0,29.98,SSE,155,12.9,18.6,100,0.00,CLR,,0.00,WeatherDisplay:10.37,2013-03-31 05:43:00,
2013-03-31 00:48:00,69.0,69.0,29.98,South,179,11.6,18.1,100,0.00,CLR,,0.00,WeatherDisplay:10.37,2013-03-31 05:48:00,
2013-03-31 00:53:00,68.7,68.7,29.98,SE,141,12.1,21.1,100,0.00,CLR,,0.00,WeatherDisplay:10.37,2013-03-31 05:53:00,
2013-03-31 00:58:00,68.7,68.7,29.97,SSE,167,12.7,23.0,100,0.00,CLR,,0.00,WeatherDisplay:10.37,2013-03-31 05:58:00,
2013-03-31 01:03:00,68.7,68.7,29.97,SE,143,14.9,22.1,100,0.00,CLR,,0.00,WeatherDisplay:10.37,2013-03-31 06:03:00,
2013-03-31 01:08:00,68.7,68.7,29.97,SSE,151,14.1,19.0,100,0.00,CLR,,0.00,WeatherDisplay:10.37,2013-03-31 06:08:00,
2013-03-31 01:13:00,68.5,68.5,29.97,SSE,161,13.7,21.3,100,0.00,CLR,,0.00,WeatherDisplay:10.37,2013-03-31 06:13:00,
2013-03-31 01:18:00,68.7,68.7,29.97,SSE,158,10.9,19.6,100,0.00,CLR,,0.00,WeatherDisplay:10.37,2013-03-31 06:18:00,
2013-03-31 01:23:00,68.6,68.6,29.97,SE,143,11.0,17.3,100,0.00,CLR,,0.00,WeatherDisplay:10.37,2013-03-31 06:23:00,
2013-03-31 01:28:00,68.5,68.5,29.97,SSE,165,11.3,22.2,100,0.00,CLR,,0.00,WeatherDisplay:10.37,2013-03-31 06:28:00,
2013-03-31 01:33:00,68.5,68.5,29.96,South,186,13.7,19.2,100,0.00,CLR,,0.00,WeatherDisplay:10.37,2013-03-31 06:33:00,
2013-03-31 01:38:00,68.5,68.5,29.96,SSE,154,11.9,19.6,100,0.00,CLR,,0.00,WeatherDisplay:10.37,2013-03-31 06:38:00,
2013-03-31 01:43:00,68.4,68.4,29.96,SSE,158,13.4,18.4,100,0.00,CLR,,0.00,WeatherDisplay:10.37,2013-03-31 06:43:00,
2013-03-31 01:48:00,68.4,68.4,29.96,SSE,152,13.1,19.6,100,0.00,CLR,,0.00,WeatherDisplay:10.37,2013-03-31 06:48:00,
2013-03-31 01:53:00,68.5,68.5,29.95,SE,145,13.1,19.6,100,0.00,CLR,,0.00,WeatherDisplay:10.37,2013-03-31 06:53:00,
2013-03-31 01:59:00,68.4,68.4,29.95,SSE,152,14.0,19.6,100,0.00,CLR,,0.00,WeatherDisplay:10.37,2013-03-31 06:59:00,
2013-03-31 02:04:00,68.4,68.4,29.95,SSE,154,14.6,18.4,100,0.00,CLR,,0.00,WeatherDisplay:10.37,2013-03-31 07:04:00,
2013-03-31 02:09:00,68.4,68.4,29.95,South,179,12.8,18.4,100,0.00,CLR,,0.00,WeatherDisplay:10.37,2013-03-31 07:09:00,
2013-03-31 02:14:00,68.4,68.4,29.95,SSE,161,12.6,17.3,100,0.00,CLR,,0.00,WeatherDisplay:10.37,2013-03-31 07:14:00,
2013-03-31 02:19:00,68.5,68.5,29.95,SSE,165,12.1,17.3,100,0.00,CLR,,0.00,WeatherDisplay:10.37,2013-03-31 07:19:00,
2013-03-31 02:24:00,68.5,68.5,29.95,SSE,167,11.8,17.3,100,0.00,CLR,,0.00,WeatherDisplay:10.37,2013-03-31 07:24:00,
2013-03-31 02:29:00,68.4,68.4,29.95,SE,145,12.1,20.0,100,0.00,CLR,,0.00,WeatherDisplay:10.37,2013-03-31 07:29:00,
2013-03-31 02:34:00,68.5,68.5,29.95,South,172,8.9,19.6,100,0.00,CLR,,0.00,WeatherDisplay:10.37,2013-03-31 07:34:00,
2013-03-31 02:39:00,68.4,68.4,29.95,South,182,11.0,19.6,100,0.00,CLR,,0.00,WeatherDisplay:10.37,2013-03-31 07:39:00,
2013-03-31 02:44:00,68.5,68.5,29.95,SSE,162,11.4,19.6,100,0.00,CLR,,0.00,WeatherDisplay:10.37,2013-03-31 07:44:00,
2013-03-31 02:49:00,68.4,68.4,29.95,South,176,11.8,17.3,100,0.00,CLR,,0.00,WeatherDisplay:10.37,2013-03-31 07:49:00,
2013-03-31 02:54:00,68.5,68.5,29.95,South,169,10.8,16.3,100,0.00,CLR,,0.00,WeatherDisplay:10.37,2013-03-31 07:54:00,
2013-03-31 02:59:00,68.3,68.3,29.95,SE,141,13.9,20.7,100,0.00,CLR,,0.00,WeatherDisplay:10.37,2013-03-31 07:59:00,
2013-03-31 03:04:00,68.4,68.4,29.95,South,182,12.9,21.2,100,0.00,CLR,,0.00,WeatherDisplay:10.37,2013-03-31 08:04:00,
2013-03-31 03:09:00,68.4,68.4,29.95,SSE,168,9.8,16.1,100,0.00,CLR,,0.00,WeatherDisplay:10.37,2013-03-31 08:09:00,
2013-03-31 03:14:00,68.5,68.5,29.95,SSW,192,11.9,21.4,100,0.00,CLR,,0.00,WeatherDisplay:10.37,2013-03-31 08:14:00,
2013-03-31 03:19:00,68.4,68.4,29.94,South,181,11.9,17.3,100,0.00,CLR,,0.00,WeatherDisplay:10.37,2013-03-31 08:19:00,
2013-03-31 03:24:00,68.3,68.3,29.94,SSE,165,10.7,18.4,100,0.00,CLR,,0.00,WeatherDisplay:10.37,2013-03-31 08:24:00,
2013-03-31 03:29:00,68.3,68.3,29.94,SSE,168,11.7,17.3,100,0.00,CLR,,0.00,WeatherDisplay:10.37,2013-03-31 08:29:00,
2013-03-31 03:34:00,68.2,68.2,29.94,South,184,12.1,18.4,100,0.00,CLR,,0.00,WeatherDisplay:10.37,2013-03-31 08:34:00,
2013-03-31 03:39:00,68.3,68.3,29.94,SE,133,9.6,18.4,100,0.00,CLR,,0.00,WeatherDisplay:10.37,2013-03-31 08:39:00,
2013-03-31 03:44:00,68.2,68.2,29.94,South,189,9.5,17.3,100,0.00,CLR,,0.00,WeatherDisplay:10.37,2013-03-31 08:44:00,
2013-03-31 03:49:00,68.3,68.3,29.93,SSE,165,9.7,18.4,100,0.00,CLR,,0.00,WeatherDisplay:10.37,2013-03-31 08:49:00,
2013-03-31 03:54:00,68.3,68.3,29.93,SSE,154,11.9,17.8,100,0.00,CLR,,0.00,WeatherDisplay:10.37,2013-03-31 08:54:00,
2013-03-31 03:59:00,68.2,68.2,29.93,South,189,12.0,17.3,100,0.00,CLR,,0.00,WeatherDisplay:10.37,2013-03-31 08:59:00,
2013-03-31 04:04:00,68.2,68.2,29.93,South,186,11.4,17.3,100,0.00,CLR,,0.00,WeatherDisplay:10.37,2013-03-31 09:04:00,
2013-03-31 04:09:00,68.2,68.2,29.93,SSE,162,10.5,17.3,100,0.00,CLR,,0.00,WeatherDisplay:10.37,2013-03-31 09:09:00,
2013-03-31 04:14:00,68.2,68.2,29.93,SSE,148,11.4,18.4,100,0.00,CLR,,0.00,WeatherDisplay:10.37,2013-03-31 09:14:00,
2013-03-31 04:19:00,68.3,68.3,29.93,South,178,9.4,15.0,100,0.00,CLR,,0.00,WeatherDisplay:10.37,2013-03-31 09:19:00,
2013-03-31 04:24:00,68.3,68.3,29.92,South,175,13.9,18.0,100,0.00,CLR,,0.00,WeatherDisplay:10.37,2013-03-31 09:24:00,
2013-03-31 04:29:00,68.3,68.3,29.92,SSW,193,10.5,18.4,100,0.00,CLR,,0.00,WeatherDisplay:10.37,2013-03-31 09:29:00,
2013-03-31 04:34:00,68.3,68.3,29.92,SSE,154,10.3,18.4,100,0.00,CLR,,0.00,WeatherDisplay:10.37,2013-03-31 09:34:00,
2013-03-31 04:39:00,68.2,68.2,29.92,SE,133,11.0,16.0,100,0.00,CLR,,0.00,WeatherDisplay:10.37,2013-03-31 09:39:00,
2013-03-31 04:44:00,68.2,68.2,29.92,South,184,9.1,14.8,100,0.00,CLR,,0.00,WeatherDisplay:10.37,2013-03-31 09:44:00,
2013-03-31 04:49:00,68.3,68.3,29.92,South,171,7.7,11.7,100,0.00,CLR,,0.00,WeatherDisplay:10.37,2013-03-31 09:49:00,
2013-03-31 04:54:00,68.3,68.3,29.91,South,179,9.9,15.0,100,0.00,CLR,,0.00,WeatherDisplay:10.37,2013-03-31 09:54:00,
2013-03-31 04:59:00,68.2,68.2,29.92,SSE,164,5.9,15.0,100,0.00,CLR,,0.00,WeatherDisplay:10.37,2013-03-31 09:59:00,
2013-03-31 05:04:00,68.3,68.3,29.92,South,181,12.3,17.5,100,0.00,CLR,,0.00,WeatherDisplay:10.37,2013-03-31 10:04:00,
2013-03-31 05:09:00,68.3,68.3,29.92,South,169,9.2,15.0,100,0.00,CLR,,0.00,WeatherDisplay:10.37,2013-03-31 10:09:00,
2013-03-31 05:14:00,68.3,68.3,29.92,South,179,8.8,16.1,100,0.00,CLR,,0.00,WeatherDisplay:10.37,2013-03-31 10:14:00,
2013-03-31 05:19:00,68.3,68.3,29.92,SSE,152,11.1,14.2,100,0.00,CLR,,0.00,WeatherDisplay:10.37,2013-03-31 10:19:00,
2013-03-31 05:24:00,68.3,68.3,29.92,SSW,192,10.8,15.0,100,0.00,CLR,,0.00,WeatherDisplay:10.37,2013-03-31 10:24:00,
2013-03-31 05:29:00,68.4,68.4,29.92,South,175,8.6,16.1,100,0.00,CLR,,0.00,WeatherDisplay:10.37,2013-03-31 10:29:00,
2013-03-31 05:34:00,68.3,68.3,29.92,SSE,152,9.4,13.8,100,0.00,CLR,,0.00,WeatherDisplay:10.37,2013-03-31 10:34:00,
2013-03-31 05:39:00,68.3,68.3,29.92,South,172,10.1,17.3,100,0.00,CLR,,0.00,WeatherDisplay:10.37,2013-03-31 10:39:00,
2013-03-31 05:44:00,68.3,68.3,29.92,SSE,167,9.4,16.1,100,0.00,CLR,,0.00,WeatherDisplay:10.37,2013-03-31 10:44:00,
2013-03-31 05:49:00,68.3,68.3,29.92,SSW,193,9.7,15.5,100,0.00,CLR,,0.00,WeatherDisplay:10.37,2013-03-31 10:49:00,
2013-03-31 05:54:00,68.2,68.2,29.92,SSW,196,10.8,18.4,100,0.00,CLR,,0.00,WeatherDisplay:10.37,2013-03-31 10:54:00,
2013-03-31 05:59:00,68.3,68.3,29.91,SSE,148,10.8,16.5,100,0.00,CLR,,0.00,WeatherDisplay:10.37,2013-03-31 10:59:00,
2013-03-31 06:04:00,68.2,68.2,29.91,SSE,161,10.5,17.3,100,0.00,CLR,,0.00,WeatherDisplay:10.37,2013-03-31 11:04:00,
2013-03-31 06:09:00,68.3,68.3,29.91,SE,131,11.0,18.4,100,0.00,CLR,,0.00,WeatherDisplay:10.37,2013-03-31 11:09:00,
2013-03-31 06:14:00,68.3,68.3,29.92,South,176,11.6,16.1,100,0.00,CLR,,0.00,WeatherDisplay:10.37,2013-03-31 11:14:00,
2013-03-31 06:19:00,68.2,68.2,29.91,SSW,193,9.6,17.7,100,0.00,CLR,,0.00,WeatherDisplay:10.37,2013-03-31 11:19:00,
2013-03-31 06:24:00,68.1,68.1,29.91,South,186,10.6,15.9,100,0.00,CLR,,0.00,WeatherDisplay:10.37,2013-03-31 11:24:00,
2013-03-31 06:29:00,68.1,68.1,29.92,SSE,155,9.2,15.2,100,0.00,CLR,,0.00,WeatherDisplay:10.37,2013-03-31 11:29:00,
2013-03-31 06:34:00,68.1,68.1,29.92,SSE,167,9.9,16.1,100,0.00,CLR,,0.00,WeatherDisplay:10.37,2013-03-31 11:34:00,
2013-03-31 06:39:00,68.1,68.1,29.92,SW,220,8.9,13.8,100,0.00,CLR,,0.00,WeatherDisplay:10.37,2013-03-31 11:39:00,
2013-03-31 06:44:00,68.1,68.1,29.93,SSW,192,10.0,15.3,100,0.00,CLR,,0.00,WeatherDisplay:10.37,2013-03-31 11:44:00,
2013-03-31 06:49:00,68.1,68.1,29.93,SSE,167,11.0,15.0,100,0.00,CLR,,0.00,WeatherDisplay:10.37,2013-03-31 11:49:00,
2013-03-31 06:54:00,68.1,68.1,29.93,South,186,9.7,12.7,100,0.00,CLR,,0.00,WeatherDisplay:10.37,2013-03-31 11:54:00,
2013-03-31 06:59:00,68.0,68.0,29.93,SW,215,8.3,15.0,100,0.00,CLR,,0.00,WeatherDisplay:10.37,2013-03-31 11:59:00,
2013-03-31 07:04:00,68.1,68.1,29.93,SSW,200,8.9,15.0,100,0.00,CLR,,0.00,WeatherDisplay:10.37,2013-03-31 12:04:00,
2013-03-31 07:10:00,68.1,68.1,29.93,South,191,7.1,11.5,100,0.00,CLR,,0.00,WeatherDisplay:10.37,2013-03-31 12:10:00,
2013-03-31 07:15:00,68.1,68.1,29.93,SSE,164,7.3,13.8,100,0.00,CLR,,0.00,WeatherDisplay:10.37,2013-03-31 12:15:00,
2013-03-31 07:20:00,68.0,68.0,29.93,SSE,152,8.1,16.3,100,0.00,CLR,,0.00,WeatherDisplay:10.37,2013-03-31 12:20:00,
2013-03-31 07:25:00,68.1,68.1,29.93,SSW,202,8.2,16.3,100,0.00,CLR,,0.00,WeatherDisplay:10.37,2013-03-31 12:25:00,
2013-03-31 07:30:00,68.0,68.0,29.93,SSW,196,8.0,14.1,100,0.00,CLR,,0.00,WeatherDisplay:10.37,2013-03-31 12:30:00,
2013-03-31 07:35:00,68.0,68.0,29.93,SSE,155,7.2,14.1,100,0.00,CLR,,0.00,WeatherDisplay:10.37,2013-03-31 12:35:00,
2013-03-31 07:40:00,67.9,67.9,29.93,SSE,164,7.7,11.5,100,0.00,CLR,,0.00,WeatherDisplay:10.37,2013-03-31 12:40:00,
2013-03-31 07:45:00,67.8,67.8,29.93,South,184,8.4,15.0,100,0.00,CLR,,0.00,WeatherDisplay:10.37,2013-03-31 12:45:00,
2013-03-31 07:50:00,68.0,68.0,29.94,SSE,164,5.8,8.9,100,0.00,CLR,,0.00,WeatherDisplay:10.37,2013-03-31 12:50:00,
2013-03-31 07:55:00,67.9,67.9,29.94,SSE,168,7.2,15.4,100,0.00,CLR,,0.00,WeatherDisplay:10.37,2013-03-31 12:55:00,
2013-03-31 08:00:00,68.0,68.0,29.94,SSE,165,6.9,15.4,100,0.00,CLR,,0.00,WeatherDisplay:10.37,2013-03-31 13:00:00,
2013-03-31 08:05:00,67.9,67.9,29.94,SSE,165,8.9,12.7,100,0.00,CLR,,0.00,WeatherDisplay:10.37,2013-03-31 13:05:00,
2013-03-31 08:10:00,67.9,67.9,29.94,South,186,8.7,12.7,100,0.00,CLR,,0.00,WeatherDisplay:10.37,2013-03-31 13:10:00,
2013-03-31 08:15:00,67.8,67.8,29.95,SSW,193,8.5,12.7,100,0.00,CLR,,0.00,WeatherDisplay:10.37,2013-03-31 13:15:00,
2013-03-31 08:20:00,67.9,67.9,29.95,South,175,7.5,11.7,100,0.00,CLR,,0.00,WeatherDisplay:10.37,2013-03-31 13:20:00,
2013-03-31 08:25:00,68.0,68.0,29.95,South,169,7.0,13.8,100,0.00,CLR,,0.00,WeatherDisplay:10.37,2013-03-31 13:25:00,
2013-03-31 08:30:00,68.1,68.1,29.95,SSE,151,6.9,12.7,100,0.00,CLR,,0.00,WeatherDisplay:10.37,2013-03-31 13:30:00,
2013-03-31 08:35:00,68.1,68.1,29.95,SSW,198,6.5,9.2,100,0.00,CLR,,0.00,WeatherDisplay:10.37,2013-03-31 13:35:00,
2013-03-31 08:40:00,68.0,68.0,29.96,South,172,7.1,11.5,100,0.00,CLR,,0.00,WeatherDisplay:10.37,2013-03-31 13:40:00,
2013-03-31 08:45:00,68.0,68.0,29.95,South,175,7.3,9.2,100,0.00,CLR,,0.00,WeatherDisplay:10.37,2013-03-31 13:45:00,
2013-03-31 08:50:00,68.1,68.1,29.95,South,186,8.0,12.7,100,0.00,CLR,,0.00,WeatherDisplay:10.37,2013-03-31 13:50:00,
2013-03-31 08:55:00,68.0,68.0,29.95,SSW,199,7.4,12.1,100,0.00,CLR,,0.00,WeatherDisplay:10.37,2013-03-31 13:55:00,
2013-03-31 09:00:00,68.1,68.1,29.96,South,169,6.6,10.4,100,0.00,CLR,,0.00,WeatherDisplay:10.37,2013-03-31 14:00:00,
2013-03-31 09:05:00,68.3,68.3,29.96,SSE,165,7.1,11.5,100,0.00,CLR,,0.00,WeatherDisplay:10.37,2013-03-31 14:05:00,
2013-03-31 09:10:00,68.4,68.4,29.96,SSE,157,6.6,9.2,100,0.00,CLR,,0.00,WeatherDisplay:10.37,2013-03-31 14:10:00,
2013-03-31 09:15:00,68.5,68.5,29.96,SSE,167,6.2,11.4,100,0.00,CLR,,0.00,WeatherDisplay:10.37,2013-03-31 14:15:00,
2013-03-31 09:21:00,68.6,68.6,29.96,SSW,192,5.8,10.4,100,0.00,CLR,,0.00,WeatherDisplay:10.37,2013-03-31 14:21:00,
2013-03-31 09:26:00,68.6,68.6,29.96,South,181,7.7,11.5,100,0.00,CLR,,0.00,WeatherDisplay:10.37,2013-03-31 14:26:00,
2013-03-31 09:31:00,68.6,68.6,29.96,South,184,7.3,12.4,100,0.00,CLR,,0.00,WeatherDisplay:10.37,2013-03-31 14:31:00,
2013-03-31 09:36:00,68.8,68.8,29.96,SSE,168,6.5,12.7,100,0.00,CLR,,0.00,WeatherDisplay:10.37,2013-03-31 14:36:00,
2013-03-31 09:41:00,68.8,68.8,29.96,SSW,196,7.8,12.7,100,0.00,CLR,,0.00,WeatherDisplay:10.37,2013-03-31 14:41:00,
2013-03-31 09:46:00,68.8,68.8,29.96,South,189,7.2,12.7,100,0.00,CLR,,0.00,WeatherDisplay:10.37,2013-03-31 14:46:00,
2013-03-31 09:51:00,69.0,69.0,29.96,SSE,168,7.1,11.9,100,0.00,CLR,,0.00,WeatherDisplay:10.37,2013-03-31 14:51:00,
2013-03-31 09:56:00,69.2,69.2,29.96,South,182,8.6,13.0,100,0.00,CLR,,0.00,WeatherDisplay:10.37,2013-03-31 14:56:00,
2013-03-31 10:01:00,69.5,69.5,29.96,South,175,6.4,10.4,100,0.00,CLR,,0.00,WeatherDisplay:10.37,2013-03-31 15:01:00,
2013-03-31 10:06:00,69.9,69.9,29.96,South,172,7.4,12.7,100,0.00,CLR,,0.00,WeatherDisplay:10.37,2013-03-31 15:06:00,
2013-03-31 10:12:00,69.8,69.8,29.96,SSW,192,7.7,11.5,100,0.00,CLR,,0.00,WeatherDisplay:10.37,2013-03-31 15:12:00,
2013-03-31 10:17:00,70.1,70.1,29.96,South,185,6.6,10.4,100,0.00,CLR,,0.00,WeatherDisplay:10.37,2013-03-31 15:17:00,
2013-03-31 10:22:00,70.0,70.0,29.97,SSE,160,7.2,11.5,100,0.00,CLR,,0.00,WeatherDisplay:10.37,2013-03-31 15:22:00,
2013-03-31 10:27:00,70.2,69.9,29.96,South,175,6.9,11.6,99,0.00,CLR,,0.00,WeatherDisplay:10.37,2013-03-31 15:27:00,
2013-03-31 10:32:00,70.3,70.0,29.96,SSW,200,5.9,11.5,99,0.00,CLR,,0.00,WeatherDisplay:10.37,2013-03-31 15:32:00,
2013-03-31 10:38:00,70.4,69.8,29.96,South,181,7.7,13.8,98,0.00,CLR,,0.00,WeatherDisplay:10.37,2013-03-31 15:38:00,
2013-03-31 10:43:00,70.6,70.0,29.96,South,186,8.6,12.7,98,0.00,CLR,,0.00,WeatherDisplay:10.37,2013-03-31 15:43:00,
2013-03-31 10:48:00,70.7,70.1,29.95,South,171,8.8,15.7,98,0.00,CLR,,0.00,WeatherDisplay:10.37,2013-03-31 15:48:00,
2013-03-31 10:53:00,70.6,70.0,29.95,South,174,6.8,15.0,98,0.00,CLR,,0.00,WeatherDisplay:10.37,2013-03-31 15:53:00,
2013-03-31 10:58:00,70.8,69.9,29.96,South,175,6.8,16.1,97,0.00,CLR,,0.00,WeatherDisplay:10.37,2013-03-31 15:58:00,
2013-03-31 11:03:00,70.7,69.8,29.96,SSE,161,7.4,15.0,97,0.00,CLR,,0.00,WeatherDisplay:10.37,2013-03-31 16:03:00,
2013-03-31 11:08:00,70.8,69.9,29.95,South,175,7.7,15.0,97,0.00,CLR,,0.00,WeatherDisplay:10.37,2013-03-31 16:08:00,
2013-03-31 11:13:00,70.9,69.7,29.95,South,172,10.0,17.8,96,0.00,CLR,,0.00,WeatherDisplay:10.37,2013-03-31 16:13:00,
2013-03-31 11:18:00,70.8,69.6,29.95,SSE,157,10.6,17.8,96,0.00,CLR,,0.00,WeatherDisplay:10.37,2013-03-31 16:18:00,
2013-03-31 11:23:00,71.0,69.8,29.95,SE,144,10.6,15.2,96,0.00,CLR,,0.00,WeatherDisplay:10.37,2013-03-31 16:23:00,
2013-03-31 11:28:00,71.1,69.9,29.94,South,178,9.2,16.6,96,0.00,CLR,,0.00,WeatherDisplay:10.37,2013-03-31 16:28:00,
2013-03-31 11:33:00,71.4,70.2,29.94,SSE,151,8.8,12.7,96,0.00,CLR,,0.00,WeatherDisplay:10.37,2013-03-31 16:33:00,
2013-03-31 11:38:00,71.8,70.0,29.94,South,176,9.0,16.1,94,0.00,CLR,,0.00,WeatherDisplay:10.37,2013-03-31 16:38:00,
2013-03-31 11:43:00,72.1,70.0,29.94,SSE,164,10.3,15.2,93,0.00,CLR,,0.00,WeatherDisplay:10.37,2013-03-31 16:43:00,
2013-03-31 11:48:00,72.5,70.0,29.95,SSE,154,9.7,13.8,92,0.00,CLR,,0.00,WeatherDisplay:10.37,2013-03-31 16:48:00,
2013-03-31 11:53:00,72.9,70.1,29.95,SSE,152,9.9,16.1,91,0.00,CLR,,0.00,WeatherDisplay:10.37,2013-03-31 16:53:00,
2013-03-31 11:58:00,73.2,70.1,29.95,South,172,11.0,17.3,90,0.00,CLR,,0.00,WeatherDisplay:10.37,2013-03-31 16:58:00,
2013-03-31 12:03:00,73.1,69.3,29.95,South,178,11.1,16.1,88,0.00,CLR,,0.00,WeatherDisplay:10.37,2013-03-31 17:03:00,
2013-03-31 12:08:00,73.1,69.3,29.95,SSE,154,9.6,16.1,88,0.00,CLR,,0.00,WeatherDisplay:10.37,2013-03-31 17:08:00,
2013-03-31 12:13:00,73.3,69.9,29.95,SE,143,8.6,15.0,89,0.00,CLR,,0.00,WeatherDisplay:10.37,2013-03-31 17:13:00,
2013-03-31 12:18:00,73.6,70.2,29.94,SSE,152,9.3,17.3,89,0.00,CLR,,0.00,WeatherDisplay:10.37,2013-03-31 17:18:00,
2013-03-31 12:23:00,73.5,69.7,29.94,SSE,167,12.0,18.4,88,0.00,CLR,,0.00,WeatherDisplay:10.37,2013-03-31 17:23:00,
2013-03-31 12:29:00,73.4,70.0,29.94,SSE,161,11.1,18.0,89,0.00,CLR,,0.00,WeatherDisplay:10.37,2013-03-31 17:29:00,
2013-03-31 12:34:00,73.5,70.4,29.94,SSE,148,7.3,13.8,90,0.00,CLR,,0.00,WeatherDisplay:10.37,2013-03-31 17:34:00,
2013-03-31 12:39:00,74.0,70.6,29.94,SSE,165,9.6,15.2,89,0.00,CLR,,0.00,WeatherDisplay:10.37,2013-03-31 17:39:00,
2013-03-31 12:44:00,74.6,70.8,29.93,SSW,192,9.0,15.0,88,0.00,CLR,,0.00,WeatherDisplay:10.37,2013-03-31 17:44:00,
2013-03-31 12:49:00,74.4,70.3,29.93,SSE,168,10.9,17.7,87,0.00,CLR,,0.00,WeatherDisplay:10.37,2013-03-31 17:49:00,
2013-03-31 12:54:00,74.3,70.2,29.93,SSE,150,12.4,18.4,87,0.00,CLR,,0.00,WeatherDisplay:10.37,2013-03-31 17:54:00,
2013-03-31 12:59:00,74.3,70.2,29.93,SSE,147,9.7,15.0,87,0.00,CLR,,0.00,WeatherDisplay:10.37,2013-03-31 17:59:00,
2013-03-31 13:04:00,74.0,69.9,29.93,SSE,147,11.8,17.3,87,0.00,CLR,,0.00,WeatherDisplay:10.37,2013-03-31 18:04:00,
2013-03-31 13:09:00,73.9,70.1,29.93,South,169,12.2,17.6,88,0.00,CLR,,0.00,WeatherDisplay:10.37,2013-03-31 18:09:00,
2013-03-31 13:14:00,73.9,70.5,29.93,South,169,12.7,18.7,89,0.00,CLR,,0.00,WeatherDisplay:10.37,2013-03-31 18:14:00,
2013-03-31 13:19:00,73.9,70.1,29.93,South,181,10.7,18.4,88,0.00,CLR,,0.00,WeatherDisplay:10.37,2013-03-31 18:19:00,
2013-03-31 13:24:00,73.8,70.4,29.93,SE,137,11.5,17.3,89,0.00,CLR,,0.00,WeatherDisplay:10.37,2013-03-31 18:24:00,
2013-03-31 13:29:00,73.8,70.0,29.93,South,188,11.5,18.5,88,0.00,CLR,,0.00,WeatherDisplay:10.37,2013-03-31 18:29:00,
2013-03-31 13:34:00,74.0,70.2,29.93,SSE,158,9.5,18.5,88,0.00,CLR,,0.00,WeatherDisplay:10.37,2013-03-31 18:34:00,
2013-03-31 13:39:00,74.2,70.4,29.93,SE,144,10.3,14.2,88,0.00,CLR,,0.00,WeatherDisplay:10.37,2013-03-31 18:39:00,
2013-03-31 13:44:00,74.3,70.2,29.93,SSE,158,9.0,16.1,87,0.00,CLR,,0.00,WeatherDisplay:10.37,2013-03-31 18:44:00,
2013-03-31 13:49:00,74.6,70.1,29.93,SSE,152,9.2,13.3,86,0.00,CLR,,0.00,WeatherDisplay:10.37,2013-03-31 18:49:00,
2013-03-31 13:54:00,74.7,69.9,29.93,SSE,162,10.2,11.5,85,0.00,CLR,,0.00,WeatherDisplay:10.37,2013-03-31 18:54:00,
2013-03-31 13:59:00,74.7,70.2,29.93,SE,127,9.6,17.8,86,0.00,CLR,,0.00,WeatherDisplay:10.37,2013-03-31 18:59:00,
2013-03-31 14:04:00,74.5,70.0,29.93,SE,136,10.4,18.4,86,0.00,CLR,,0.00,WeatherDisplay:10.37,2013-03-31 19:04:00,
2013-03-31 14:09:00,74.6,70.1,29.92,SE,124,13.0,18.4,86,0.00,CLR,,0.00,WeatherDisplay:10.37,2013-03-31 19:09:00,
2013-03-31 14:14:00,74.6,70.1,29.92,South,175,13.7,19.4,86,0.00,CLR,,0.00,WeatherDisplay:10.37,2013-03-31 19:14:00,
2013-03-31 14:19:00,74.3,70.2,29.92,SE,126,10.0,18.4,87,0.00,CLR,,0.00,WeatherDisplay:10.37,2013-03-31 19:19:00,
2013-03-31 14:24:00,74.1,70.3,29.92,SSE,157,11.0,20.6,88,0.00,CLR,,0.00,WeatherDisplay:10.37,2013-03-31 19:24:00,
2013-03-31 14:29:00,74.0,70.2,29.91,SE,141,10.9,17.3,88,0.00,CLR,,0.00,WeatherDisplay:10.37,2013-03-31 19:29:00,
2013-03-31 14:34:00,74.1,70.6,29.91,SE,131,8.6,16.1,89,0.00,CLR,,0.00,WeatherDisplay:10.37,2013-03-31 19:34:00,
2013-03-31 14:40:00,74.4,70.6,29.91,SSE,164,8.6,13.8,88,0.00,CLR,,0.00,WeatherDisplay:10.37,2013-03-31 19:40:00,
2013-03-31 14:45:00,74.4,70.3,29.91,SE,140,9.2,17.3,87,0.00,CLR,,0.00,WeatherDisplay:10.37,2013-03-31 19:45:00,
2013-03-31 14:50:00,74.3,70.2,29.90,SE,143,11.3,18.4,87,0.00,CLR,,0.00,WeatherDisplay:10.37,2013-03-31 19:50:00,
2013-03-31 14:55:00,74.4,70.3,29.90,SSE,147,8.7,18.4,87,0.00,CLR,,0.00,WeatherDisplay:10.37,2013-03-31 19:55:00,
2013-03-31 15:00:00,74.4,70.3,29.89,SE,126,8.7,16.3,87,0.00,CLR,,0.00,WeatherDisplay:10.37,2013-03-31 20:00:00,
2013-03-31 15:05:00,74.8,70.7,29.89,SSE,152,9.3,17.3,87,0.00,CLR,,0.00,WeatherDisplay:10.37,2013-03-31 20:05:00,
2013-03-31 15:10:00,74.7,70.2,29.89,SE,137,10.0,19.5,86,0.00,CLR,,0.00,WeatherDisplay:10.37,2013-03-31 20:10:00,
2013-03-31 15:15:00,74.8,70.3,29.88,SSE,168,10.8,17.3,86,0.00,CLR,,0.00,WeatherDisplay:10.37,2013-03-31 20:15:00,
2013-03-31 15:20:00,75.0,70.5,29.88,SE,137,9.6,21.0,86,0.00,CLR,,0.00,WeatherDisplay:10.37,2013-03-31 20:20:00,
2013-03-31 15:25:00,75.2,70.0,29.88,SE,128,9.0,16.2,84,0.00,CLR,,0.00,WeatherDisplay:10.37,2013-03-31 20:25:00,
2013-03-31 15:30:00,75.4,70.2,29.88,SE,144,9.0,15.0,84,0.00,CLR,,0.00,WeatherDisplay:10.37,2013-03-31 20:30:00,
2013-03-31 15:35:00,75.7,70.2,29.87,SSE,155,8.7,17.8,83,0.00,CLR,,0.00,WeatherDisplay:10.37,2013-03-31 20:35:00,
2013-03-31 15:40:00,75.9,70.4,29.87,SSE,162,8.6,15.9,83,0.00,CLR,,0.00,WeatherDisplay:10.37,2013-03-31 20:40:00,
2013-03-31 15:45:00,76.1,70.2,29.86,East,99,8.1,12.4,82,0.00,CLR,,0.00,WeatherDisplay:10.37,2013-03-31 20:45:00,
2013-03-31 15:50:00,76.3,70.0,29.86,South,182,10.5,19.6,81,0.00,CLR,,0.00,WeatherDisplay:10.37,2013-03-31 20:50:00,
2013-03-31 15:55:00,76.0,69.7,29.85,SSE,158,14.0,20.7,81,0.00,CLR,,0.00,WeatherDisplay:10.37,2013-03-31 20:55:00,
2013-03-31 16:00:00,75.7,69.8,29.85,SE,136,9.5,17.3,82,0.00,CLR,,0.00,WeatherDisplay:10.37,2013-03-31 21:00:00,
2013-03-31 16:05:00,75.6,70.1,29.85,South,176,11.9,17.3,83,0.00,CLR,,0.00,WeatherDisplay:10.37,2013-03-31 21:05:00,
2013-03-31 16:10:00,75.6,69.7,29.84,ESE,109,12.9,23.4,82,0.00,CLR,,0.00,WeatherDisplay:10.37,2013-03-31 21:10:00,
2013-03-31 16:15:00,75.2,69.7,29.84,SE,130,11.9,18.6,83,0.00,CLR,,0.00,WeatherDisplay:10.37,2013-03-31 21:15:00,
2013-03-31 16:20:00,75.4,69.9,29.83,SE,131,14.7,22.8,83,0.00,CLR,,0.00,WeatherDisplay:10.37,2013-03-31 21:20:00,
2013-03-31 16:25:00,75.2,70.0,29.83,SE,131,15.6,23.0,84,0.00,CLR,,0.00,WeatherDisplay:10.37,2013-03-31 21:25:00,
2013-03-31 16:30:00,75.0,69.8,29.83,SSE,154,14.4,24.7,84,0.00,CLR,,0.00,WeatherDisplay:10.37,2013-03-31 21:30:00,
2013-03-31 16:35:00,75.1,69.9,29.82,SE,126,15.2,25.3,84,0.00,CLR,,0.00,WeatherDisplay:10.37,2013-03-31 21:35:00,
2013-03-31 16:40:00,75.1,69.9,29.82,SSE,158,12.7,25.3,84,0.00,CLR,,0.00,WeatherDisplay:10.37,2013-03-31 21:40:00,
2013-03-31 16:45:00,75.3,70.1,29.81,SSE,148,12.8,24.2,84,0.00,CLR,,0.00,WeatherDisplay:10.37,2013-03-31 21:45:00,
2013-03-31 16:50:00,75.3,70.1,29.81,SE,136,13.5,20.7,84,0.00,CLR,,0.00,WeatherDisplay:10.37,2013-03-31 21:50:00,
2013-03-31 16:55:00,75.3,70.1,29.81,South,169,13.4,24.7,84,0.00,,,0.00,WeatherDisplay:10.37,2013-03-31 21:55:00,
2013-03-31 17:00:00,75.3,69.8,29.81,SE,131,13.5,26.5,83,0.00,,,0.00,WeatherDisplay:10.37,2013-03-31 22:00:00,
2013-03-31 17:05:00,75.3,69.8,29.81,SSE,160,12.8,25.3,83,0.00,,,0.00,WeatherDisplay:10.37,2013-03-31 22:05:00,
2013-03-31 17:10:00,75.1,69.6,29.81,SSE,168,13.6,24.2,83,0.00,CLR,,0.00,WeatherDisplay:10.37,2013-03-31 22:10:00,
2013-03-31 17:15:00,75.2,69.7,29.82,ESE,112,12.5,23.4,83,0.00,CLR,,0.00,WeatherDisplay:10.37,2013-03-31 22:15:00,
2013-03-31 17:20:00,75.1,69.9,29.82,East,92,11.4,23.4,84,0.00,CLR,,0.00,WeatherDisplay:10.37,2013-03-31 22:20:00,
2013-03-31 17:25:00,75.0,69.8,29.83,SSE,160,10.1,20.7,84,0.00,CLR,,0.00,WeatherDisplay:10.37,2013-03-31 22:25:00,
2013-03-31 17:30:00,74.9,69.7,29.83,SE,137,12.8,19.6,84,0.00,CLR,,0.00,WeatherDisplay:10.37,2013-03-31 22:30:00,
2013-03-31 17:35:00,74.8,69.3,29.84,SE,143,11.1,18.4,83,0.00,CLR,,0.00,WeatherDisplay:10.37,2013-03-31 22:35:00,
2013-03-31 17:40:00,74.6,69.4,29.84,SSE,155,11.2,18.4,84,0.00,CLR,,0.00,WeatherDisplay:10.37,2013-03-31 22:40:00,
2013-03-31 17:45:00,74.4,69.6,29.84,SSE,151,13.3,20.2,85,0.00,CLR,,0.00,WeatherDisplay:10.37,2013-03-31 22:45:00,
2013-03-31 17:50:00,74.4,69.9,29.84,SE,127,10.5,19.1,86,0.00,CLR,,0.00,WeatherDisplay:10.37,2013-03-31 22:50:00,
2013-03-31 17:55:00,74.1,69.6,29.84,SSE,160,9.9,15.2,86,0.00,CLR,,0.00,WeatherDisplay:10.37,2013-03-31 22:55:00,
2013-03-31 18:00:00,73.9,69.4,29.84,SE,134,12.0,17.3,86,0.00,CLR,,0.00,WeatherDisplay:10.37,2013-03-31 23:00:00,
2013-03-31 18:05:00,73.8,69.7,29.84,SE,127,8.7,12.7,87,0.00,CLR,,0.00,WeatherDisplay:10.37,2013-03-31 23:05:00,
2013-03-31 18:10:00,73.7,69.6,29.84,South,171,10.3,16.1,87,0.00,CLR,,0.00,WeatherDisplay:10.37,2013-03-31 23:10:00,
2013-03-31 18:16:00,73.7,69.9,29.85,ESE,121,11.9,16.3,88,0.00,CLR,,0.00,WeatherDisplay:10.37,2013-03-31 23:16:00,
2013-03-31 18:21:00,73.6,69.8,29.85,ESE,114,6.3,14.4,88,0.00,CLR,,0.00,WeatherDisplay:10.37,2013-03-31 23:21:00,
2013-03-31 18:26:00,73.8,70.0,29.85,ESE,107,8.6,15.0,88,0.00,CLR,,0.00,WeatherDisplay:10.37,2013-03-31 23:26:00,
2013-03-31 18:31:00,74.0,69.9,29.85,SSE,150,9.7,15.0,87,0.00,CLR,,0.00,WeatherDisplay:10.37,2013-03-31 23:31:00,
2013-03-31 18:37:00,73.6,69.8,29.85,ESE,117,7.1,16.7,88,0.00,CLR,,0.00,WeatherDisplay:10.37,2013-03-31 23:37:00,
2013-03-31 18:42:00,73.5,69.7,29.85,SSE,148,8.2,12.7,88,0.00,CLR,,0.00,WeatherDisplay:10.37,2013-03-31 23:42:00,
2013-03-31 18:47:00,73.4,70.0,29.85,SSE,167,6.9,14.1,89,0.00,CLR,,0.00,WeatherDisplay:10.37,2013-03-31 23:47:00,
2013-03-31 18:52:00,73.2,69.8,29.86,SSE,161,6.7,15.0,89,0.00,CLR,,0.00,WeatherDisplay:10.37,2013-03-31 23:52:00,
2013-03-31 18:57:00,73.1,70.0,29.86,SSE,148,6.6,12.7,90,0.00,CLR,,0.00,WeatherDisplay:10.37,2013-03-31 23:57:00,
2013-03-31 19:02:00,73.0,69.9,29.87,ESE,107,6.3,11.6,90,0.00,CLR,,0.00,WeatherDisplay:10.37,2013-04-01 00:02:00,
2013-03-31 19:08:00,72.8,69.7,29.88,SE,130,6.7,10.9,90,0.00,CLR,,0.00,WeatherDisplay:10.37,2013-04-01 00:08:00,
2013-03-31 19:13:00,72.7,69.9,29.88,ESE,107,5.6,10.4,91,0.00,CLR,,0.00,WeatherDisplay:10.37,2013-04-01 00:13:00,
2013-03-31 19:18:00,72.7,69.9,29.88,ENE,72,6.6,9.2,91,0.00,CLR,,0.00,WeatherDisplay:10.37,2013-04-01 00:18:00,
2013-03-31 19:23:00,72.8,70.0,29.89,East,82,7.1,11.4,91,0.00,CLR,,0.00,WeatherDisplay:10.37,2013-04-01 00:23:00,
2013-03-31 19:28:00,72.9,70.1,29.89,East,97,5.4,7.2,91,0.00,CLR,,0.00,WeatherDisplay:10.37,2013-04-01 00:28:00,
2013-03-31 19:33:00,72.8,70.0,29.89,East,79,5.1,10.4,91,0.00,CLR,,0.00,WeatherDisplay:10.37,2013-04-01 00:33:00,
2013-03-31 19:38:00,72.6,69.8,29.90,East,86,6.6,9.2,91,0.00,CLR,,0.00,WeatherDisplay:10.37,2013-04-01 00:38:00,
2013-03-31 19:43:00,72.7,70.2,29.90,ENE,78,4.4,6.9,92,0.00,CLR,,0.00,WeatherDisplay:10.37,2013-04-01 00:43:00,
2013-03-31 19:48:00,72.6,70.1,29.91,ENE,58,6.1,8.1,92,0.00,CLR,,0.00,WeatherDisplay:10.37,2013-04-01 00:48:00,
2013-03-31 19:53:00,72.3,69.8,29.91,NE,56,11.3,15.0,92,0.00,CLR,,0.00,WeatherDisplay:10.37,2013-04-01 00:53:00,
2013-03-31 19:58:00,72.3,70.2,29.91,ENE,58,6.4,10.4,93,0.00,CLR,,0.00,WeatherDisplay:10.37,2013-04-01 00:58:00,
2013-03-31 20:04:00,72.2,70.1,29.90,East,86,8.3,15.0,93,0.00,CLR,,0.00,WeatherDisplay:10.37,2013-04-01 01:04:00,
2013-03-31 20:09:00,72.3,70.2,29.91,ENE,72,9.7,13.0,93,0.00,CLR,,0.00,WeatherDisplay:10.37,2013-04-01 01:09:00,
2013-03-31 20:14:00,72.2,70.4,29.91,East,83,8.7,12.7,94,0.00,CLR,,0.00,WeatherDisplay:10.37,2013-04-01 01:14:00,
2013-03-31 20:19:00,72.5,70.7,29.92,East,79,8.0,13.8,94,0.00,CLR,,0.00,WeatherDisplay:10.37,2013-04-01 01:19:00,
2013-03-31 20:24:00,72.5,70.7,29.93,East,79,9.1,11.9,94,0.00,CLR,,0.00,WeatherDisplay:10.37,2013-04-01 01:24:00,
2013-03-31 20:29:00,72.5,70.7,29.94,ENE,72,9.5,12.0,94,0.00,CLR,,0.00,WeatherDisplay:10.37,2013-04-01 01:29:00,
2013-03-31 20:34:00,72.5,70.7,29.94,NE,55,11.2,13.8,94,0.00,CLR,,0.00,WeatherDisplay:10.37,2013-04-01 01:34:00,
2013-03-31 20:39:00,72.4,70.6,29.93,NE,55,11.5,16.1,94,0.00,CLR,,0.00,WeatherDisplay:10.37,2013-04-01 01:39:00,
2013-03-31 20:44:00,72.3,70.8,29.94,ENE,69,13.6,18.4,95,0.00,CLR,,0.00,WeatherDisplay:10.37,2013-04-01 01:44:00,
2013-03-31 20:49:00,72.3,70.8,29.95,ENE,69,12.0,16.2,95,0.00,CLR,,0.00,WeatherDisplay:10.37,2013-04-01 01:49:00,
2013-03-31 20:54:00,72.2,70.7,29.95,NE,45,12.1,16.1,95,0.00,CLR,,0.00,WeatherDisplay:10.37,2013-04-01 01:54:00,
2013-03-31 20:59:00,72.3,70.8,29.95,ENE,62,11.3,18.4,95,0.00,CLR,,0.00,WeatherDisplay:10.37,2013-04-01 01:59:00,
2013-03-31 21:04:00,72.3,70.8,29.95,East,89,11.6,16.2,95,0.00,CLR,,0.00,WeatherDisplay:10.37,2013-04-01 02:04:00,
2013-03-31 21:09:00,72.3,70.8,29.96,ENE,58,14.5,17.5,95,0.00,CLR,,0.00,WeatherDisplay:10.37,2013-04-01 02:09:00,
2013-03-31 21:14:00,72.5,71.0,29.96,ENE,76,13.9,19.6,95,0.00,CLR,,0.00,WeatherDisplay:10.37,2013-04-01 02:14:00,
2013-03-31 21:19:00,72.5,71.0,29.97,ENE,76,11.6,17.3,95,0.00,CLR,,0.00,WeatherDisplay:10.37,2013-04-01 02:19:00,
2013-03-31 21:24:00,72.4,71.2,29.98,ESE,104,9.3,15.0,96,0.00,CLR,,0.00,WeatherDisplay:10.37,2013-04-01 02:24:00,
2013-03-31 21:29:00,72.3,71.1,29.96,ENE,75,14.1,20.5,96,0.00,CLR,,0.00,WeatherDisplay:10.37,2013-04-01 02:29:00,
2013-03-31 21:34:00,72.1,70.9,29.95,NE,52,16.8,24.2,96,0.00,,,0.00,WeatherDisplay:10.37,2013-04-01 02:34:00,
2013-03-31 21:39:00,72.0,70.8,29.96,ESE,120,11.0,20.0,96,0.00,,,0.00,WeatherDisplay:10.37,2013-04-01 02:39:00,
2013-03-31 21:44:00,71.9,70.7,29.97,East,93,7.3,13.8,96,0.00,,,0.00,WeatherDisplay:10.37,2013-04-01 02:44:00,
2013-03-31 21:49:00,71.8,70.6,29.94,East,86,14.4,20.1,96,0.00,CLR,,0.00,WeatherDisplay:10.37,2013-04-01 02:49:00,
2013-03-31 21:54:00,71.5,70.3,29.92,ENE,59,16.9,25.2,96,0.00,CLR,,0.00,WeatherDisplay:10.37,2013-04-01 02:54:00,
2013-03-31 21:59:00,71.4,70.5,29.91,ESE,123,19.9,29.0,97,0.00,,,0.00,WeatherDisplay:10.37,2013-04-01 02:59:00,
2013-03-31 22:04:00,71.3,70.4,29.89,East,97,12.4,23.0,97,0.00,,,0.00,WeatherDisplay:10.37,2013-04-01 03:04:00,
2013-03-31 22:09:00,71.3,70.4,29.89,East,92,18.6,29.4,97,0.00,,,0.00,WeatherDisplay:10.37,2013-04-01 03:09:00,
2013-03-31 22:14:00,71.1,70.2,29.90,NE,51,13.2,24.2,97,0.00,,,0.00,WeatherDisplay:10.37,2013-04-01 03:14:00,
2013-03-31 22:19:00,71.0,70.1,29.91,East,86,13.4,22.0,97,0.00,,,0.00,WeatherDisplay:10.37,2013-04-01 03:19:00,
2013-03-31 22:24:00,70.9,70.0,29.91,SE,134,11.9,19.6,97,0.00,,,0.00,WeatherDisplay:10.37,2013-04-01 03:24:00,
2013-03-31 22:29:00,70.8,70.2,29.91,SE,124,10.5,22.3,98,0.00,CLR,,0.00,WeatherDisplay:10.37,2013-04-01 03:29:00,
2013-03-31 22:35:00,70.6,70.0,29.91,ESE,113,11.4,20.7,98,0.00,CLR,,0.00,WeatherDisplay:10.37,2013-04-01 03:35:00,
2013-03-31 22:40:00,70.5,69.9,29.92,SE,128,10.9,19.6,98,0.00,CLR,,0.00,WeatherDisplay:10.37,2013-04-01 03:40:00,
2013-03-31 22:45:00,70.5,69.9,29.93,East,99,11.6,21.9,98,0.00,CLR,,0.00,WeatherDisplay:10.37,2013-04-01 03:45:00,
2013-03-31 22:50:00,70.4,69.8,29.93,SE,137,8.0,18.4,98,0.00,CLR,,0.00,WeatherDisplay:10.37,2013-04-01 03:50:00,
2013-03-31 22:55:00,70.4,69.8,29.93,ESE,107,10.7,16.1,98,0.00,CLR,,0.00,WeatherDisplay:10.37,2013-04-01 03:55:00,
2013-03-31 23:00:00,70.2,69.9,29.94,ESE,114,8.8,13.8,99,0.00,CLR,,0.00,WeatherDisplay:10.37,2013-04-01 04:00:00,
2013-03-31 23:01:00,70.4,70.1,29.93,ESE,116,9.8,18.6,99,0.00,CLR,,0.00,WeatherDisplay:10.37,2013-04-01 04:01:00,
2013-03-31 23:04:00,70.4,70.1,29.93,SE,137,8.9,20.2,99,0.00,CLR,,0.00,WeatherDisplay:10.37,2013-04-01 04:04:00,
2013-03-31 23:09:00,70.3,70.0,29.93,East,99,8.5,15.0,99,0.00,CLR,,0.00,WeatherDisplay:10.37,2013-04-01 04:09:00,
2013-03-31 23:14:00,70.4,70.1,29.93,East,83,17.3,17.3,99,0.00,,,0.00,WeatherDisplay:10.37,2013-04-01 04:14:00,
2013-03-31 23:15:00,70.3,70.0,29.93,ESE,104,17.3,17.3,99,0.00,,,0.00,WeatherDisplay:10.37,2013-04-01 04:15:00,
2013-03-31 23:20:00,70.3,70.0,29.93,SE,134,10.0,15.0,99,0.00,,,0.00,WeatherDisplay:10.37,2013-04-01 04:20:00,
2013-03-31 23:25:00,70.3,70.0,29.93,East,96,8.1,17.9,99,0.00,,,0.00,WeatherDisplay:10.37,2013-04-01 04:25:00,
2013-03-31 23:30:00,70.1,69.8,29.93,SE,138,8.2,12.0,99,0.00,CLR,,0.00,WeatherDisplay:10.37,2013-04-01 04:30:00,
2013-03-31 23:35:00,70.0,69.7,29.92,ESE,109,8.7,13.8,99,0.00,CLR,,0.00,WeatherDisplay:10.37,2013-04-01 04:35:00,
2013-03-31 23:40:00,70.1,69.8,29.92,ESE,121,7.1,16.1,99,0.00,CLR,,0.00,WeatherDisplay:10.37,2013-04-01 04:40:00,
2013-03-31 23:45:00,70.0,69.7,29.91,SE,134,9.1,13.9,99,0.00,CLR,,0.00,WeatherDisplay:10.37,2013-04-01 04:45:00,
2013-03-31 23:50:00,70.0,69.7,29.90,East,93,10.8,17.0,99,0.00,CLR,,0.00,WeatherDisplay:10.37,2013-04-01 04:50:00,
2013-03-31 23:55:00,70.0,69.7,29.91,SSE,154,8.7,17.3,99,0.00,CLR,,0.00,WeatherDisplay:10.37,2013-04-01 04:55:00,